Earl Gonsoulin — WDC3306 — position and weather

sailwx.info

Track history (hours):
 
Tides and Currents Weather Stations Pressure Air Temp Water Temp Dewpoint Dewpoint Depression Visibility Wind Speed Wind Dir Waves Ship Positions

Earl Gonsoulin

Owner: LeBeouf Bros. Towing, L.L.C., Houma, LA. More information available from US FCC via Universal Licensing System and Coast Guard Vessel Documentation Center.

Last reported at 2016-May-29 16:33 UTC. Time now 2016-May-29 17:21 UTC.
Position N 30°08' W 093°19'.

Length 21 m; draft 3 m.

Type: Tug. MMSI: 367005550.

Date/timePositionNaut miles runAvg speedWind from/ knotsBaromVisibWave heightAir tempDewpointWater temp
2016-May-29 16:33N 30°08' W 093°19'0 0.0
2016-May-29 15:33N 30°08' W 093°19'0 0.0
2016-May-29 14:33N 30°08' W 093°19'0 0.0
2016-May-29 13:33N 30°08' W 093°19'0 0.0
2016-May-29 12:33N 30°08' W 093°19'0 0.0
2016-May-29 11:33N 30°08' W 093°19'0 0.0
2016-May-29 10:33N 30°08' W 093°19'0 0.0
2016-May-29 09:33N 30°08' W 093°19'0 0.0
2016-May-29 08:33N 30°08' W 093°19'0 0.0
2016-May-29 07:32N 30°08' W 093°19'1 0.6
2016-May-29 06:33N 30°08' W 093°20'4 3.8
2016-May-29 05:33N 30°04' W 093°21'0 0.0
2016-May-29 04:33N 30°04' W 093°21'0 0.0
2016-May-29 03:11N 30°04' W 093°21'0 0.0
2016-May-29 02:33N 30°04' W 093°21'0 0.0
2016-May-29 01:33N 30°04' W 093°21'0 0.0
2016-May-28 23:21N 30°04' W 093°21'0 0.0
2016-May-28 22:33N 30°04' W 093°21'0 0.0
2016-May-28 21:33N 30°04' W 093°21'0 0.0
2016-May-28 20:33N 30°04' W 093°21'0 0.0
2016-May-28 19:33N 30°04' W 093°21'0 0.0
2016-May-28 18:33N 30°04' W 093°21'0 0.0
2016-May-28 17:33N 30°04' W 093°21'0 0.0
2016-May-28 16:33N 30°04' W 093°21'0 0.2
2016-May-28 15:33N 30°04' W 093°21'0 0.2
2016-May-28 14:33N 30°04' W 093°21'0 0.0
2016-May-28 13:30N 30°04' W 093°21'0 0.0
2016-May-28 12:33N 30°04' W 093°21'0 0.0
2016-May-28 11:33N 30°04' W 093°21'0 0.0
2016-May-28 09:19N 30°04' W 093°21'0 0.0
2016-May-28 08:16N 30°04' W 093°21'0 0.0
2016-May-28 07:33N 30°04' W 093°21'0 0.0
2016-May-28 06:33N 30°04' W 093°21'0 0.0
2016-May-28 05:33N 30°04' W 093°21'0 0.0
2016-May-28 04:33N 30°04' W 093°21'0 0.0
2016-May-28 03:33N 30°04' W 093°21'0 0.0
2016-May-28 02:33N 30°04' W 093°21'0 0.0
2016-May-28 01:33N 30°04' W 093°21'0 0.0
2016-May-28 00:33N 30°04' W 093°21'0 0.0
2016-May-27 23:33N 30°04' W 093°21'0 0.0
2016-May-27 22:33N 30°04' W 093°21'0 0.0
2016-May-27 21:33N 30°04' W 093°21'0 0.0
2016-May-27 20:33N 30°04' W 093°21'0 0.0
2016-May-27 19:33N 30°04' W 093°21'0 0.1
2016-May-27 18:33N 30°04' W 093°21'0 0.1
2016-May-27 17:33N 30°04' W 093°21'0 0.0
2016-May-27 16:33N 30°04' W 093°21'0 0.0
2016-May-27 15:33N 30°04' W 093°21'0 0.0
2016-May-27 14:33N 30°04' W 093°21'0 0.0
2016-May-27 13:33N 30°04' W 093°21'0 0.0
2016-May-27 12:33N 30°04' W 093°21'0 0.0
2016-May-27 11:33N 30°04' W 093°21'0 0.0
2016-May-27 10:33N 30°04' W 093°21'0 0.0
2016-May-27 09:33N 30°04' W 093°21'0 0.0
2016-May-27 08:33N 30°04' W 093°21'1 0.6
2016-May-27 07:33N 30°05' W 093°20'0 0.1
2016-May-27 06:33N 30°05' W 093°20'1 0.8
2016-May-27 05:33N 30°04' W 093°21'1 1.1
2016-May-27 04:33N 30°05' W 093°20'0 0.1
2016-May-27 03:33N 30°05' W 093°20'2 1.6
2016-May-27 02:33N 30°06' W 093°19'0 0.0
2016-May-27 01:33N 30°06' W 093°19'0 0.0
2016-May-27 00:33N 30°06' W 093°18'0 0.0
2016-May-26 23:33N 30°06' W 093°19'4 3.8
2016-May-26 22:33N 30°04' W 093°21'6 5.6
2016-May-26 21:33N 30°04' W 093°28'6 6.5
2016-May-26 20:33N 30°04' W 093°35'7 6.9
2016-May-26 19:33N 30°03' W 093°43'37 6.1
2016-May-26 13:30N 29°39' W 094°16'33 5.3
2016-May-26 07:18N 29°26' W 094°50'7 8.5
2016-May-26 06:31N 29°32' W 094°53'8 8.3
2016-May-26 05:33N 29°39' W 094°58'7 7.5
2016-May-26 04:33N 29°44' W 095°03'4 0.1
2016-May-24 05:27N 29°44' W 095°08'3 3.4
2016-May-24 04:33N 29°46' W 095°05'3 2.6
2016-May-24 03:33N 29°44' W 095°03'6 6.2
2016-May-24 02:33N 29°39' W 094°58'22 1.3
2016-May-23 09:19N 29°29' W 094°36'9 3.0
2016-May-23 06:26N 29°34' W 094°27'4 4.3
2016-May-23 05:33N 29°36' W 094°23'42 5.7
2016-May-22 22:16N 30°01' W 093°45'4 5.8
2016-May-22 21:33N 30°04' W 093°41'6 5.6
2016-May-22 20:33N 30°04' W 093°35'5 5.1
2016-May-22 19:33N 30°04' W 093°29'5 5.0
2016-May-22 18:33N 30°04' W 093°23'4 3.7
2016-May-22 17:33N 30°05' W 093°20'6 6.3
2016-May-22 16:33N 30°11' W 093°18'3 2.8
2016-May-22 15:33N 30°13' W 093°15'0 0.5
2016-May-22 14:33N 30°14' W 093°15'0 0.0
2016-May-22 13:33N 30°14' W 093°15'0 0.0
2016-May-22 12:33N 30°14' W 093°15'0 0.0
2016-May-22 11:33N 30°14' W 093°15'0 0.0
2016-May-22 10:33N 30°14' W 093°15'0 0.0
2016-May-22 09:33N 30°14' W 093°15'0 0.0
2016-May-22 08:33N 30°14' W 093°15'0 0.0
2016-May-22 07:33N 30°14' W 093°15'0 0.0
2016-May-22 06:33N 30°14' W 093°15'0 0.0
2016-May-22 05:33N 30°14' W 093°15'0 0.0
2016-May-22 04:33N 30°14' W 093°15'0 0.0
2016-May-22 03:33N 30°14' W 093°15'0 0.0
2016-May-22 02:33N 30°14' W 093°15'0 0.0
2016-May-22 01:33N 30°14' W 093°15'0 0.0
2016-May-22 00:33N 30°14' W 093°15'0 0.0
2016-May-21 23:33N 30°14' W 093°15'0 0.0
2016-May-21 22:33N 30°14' W 093°15'0 0.0
2016-May-21 21:33N 30°14' W 093°15'0 0.0
2016-May-21 20:33N 30°14' W 093°15'0 0.0
2016-May-21 19:33N 30°14' W 093°15'0 0.4
2016-May-21 18:33N 30°14' W 093°16'0 0.0
2016-May-21 17:33N 30°14' W 093°16'0 0.0
2016-May-21 16:33N 30°14' W 093°16'0 0.0
2016-May-21 15:33N 30°14' W 093°16'0 0.0
2016-May-21 14:33N 30°14' W 093°16'0 0.0
2016-May-21 13:33N 30°14' W 093°16'0 0.0
2016-May-21 12:33N 30°14' W 093°16'0 0.0
2016-May-21 11:33N 30°14' W 093°16'0 0.0
2016-May-21 10:33N 30°14' W 093°16'0 0.0
2016-May-21 09:33N 30°14' W 093°16'0 0.0
2016-May-21 08:33N 30°14' W 093°16'0 0.0
2016-May-21 07:33N 30°14' W 093°16'0 0.0
2016-May-21 06:33N 30°14' W 093°16'0 0.0
2016-May-21 05:33N 30°14' W 093°16'0 0.0
2016-May-21 04:33N 30°14' W 093°16'0 0.0
2016-May-21 03:33N 30°14' W 093°16'0 0.0
2016-May-21 02:33N 30°14' W 093°16'0 0.0
2016-May-21 01:33N 30°14' W 093°16'0 0.0
2016-May-21 00:33N 30°14' W 093°16'0 0.0
2016-May-20 23:33N 30°14' W 093°16'2 1.6
2016-May-20 22:33N 30°12' W 093°17'6 6.3
2016-May-20 21:33N 30°07' W 093°20'1 1.4
2016-May-20 20:33N 30°06' W 093°19'2 2.3
2016-May-20 19:33N 30°05' W 093°17'0 0.0
2016-May-20 18:33N 30°05' W 093°17'3 3.3
2016-May-20 17:33N 30°02' W 093°15'6 5.9
2016-May-20 16:33N 29°57' W 093°10'4 4.5
2016-May-20 15:33N 29°56' W 093°05'7 6.8
2016-May-20 14:30N 29°56' W 092°57'105 5.2
2016-May-19 18:20N 29°36' W 090°58'5 6.5
2016-May-19 17:33N 29°33' W 090°53'7 6.6
2016-May-19 16:33N 29°32' W 090°46'  
Track history (hours):
 
Tides and Currents Weather Stations Pressure Air Temp Water Temp Dewpoint Dewpoint Depression Visibility Wind Speed Wind Dir Waves Ship Positions

Earl Gonsoulin

Owner: LeBeouf Bros. Towing, L.L.C., Houma, LA. More information available from US FCC via Universal Licensing System and Coast Guard Vessel Documentation Center.

Last reported at 2016-May-29 16:33 UTC. Time now 2016-May-29 17:21 UTC.
Position N 30°08' W 093°19'.

Length 21 m; draft 3 m.

Type: Tug. MMSI: 367005550.

Date/timePositionNaut miles runAvg speedWind from/ knotsBaromVisibWave heightAir tempDewpointWater temp
2016-May-29 16:33N 30°08' W 093°19'0 0.0
2016-May-29 15:33N 30°08' W 093°19'0 0.0
2016-May-29 14:33N 30°08' W 093°19'0 0.0
2016-May-29 13:33N 30°08' W 093°19'0 0.0
2016-May-29 12:33N 30°08' W 093°19'0 0.0
2016-May-29 11:33N 30°08' W 093°19'0 0.0
2016-May-29 10:33N 30°08' W 093°19'0 0.0
2016-May-29 09:33N 30°08' W 093°19'0 0.0
2016-May-29 08:33N 30°08' W 093°19'0 0.0
2016-May-29 07:32N 30°08' W 093°19'1 0.6
2016-May-29 06:33N 30°08' W 093°20'4 3.8
2016-May-29 05:33N 30°04' W 093°21'0 0.0
2016-May-29 04:33N 30°04' W 093°21'0 0.0
2016-May-29 03:11N 30°04' W 093°21'0 0.0
2016-May-29 02:33N 30°04' W 093°21'0 0.0
2016-May-29 01:33N 30°04' W 093°21'0 0.0
2016-May-28 23:21N 30°04' W 093°21'0 0.0
2016-May-28 22:33N 30°04' W 093°21'0 0.0
2016-May-28 21:33N 30°04' W 093°21'0 0.0
2016-May-28 20:33N 30°04' W 093°21'0 0.0
2016-May-28 19:33N 30°04' W 093°21'0 0.0
2016-May-28 18:33N 30°04' W 093°21'0 0.0
2016-May-28 17:33N 30°04' W 093°21'0 0.0
2016-May-28 16:33N 30°04' W 093°21'0 0.2
2016-May-28 15:33N 30°04' W 093°21'0 0.2
2016-May-28 14:33N 30°04' W 093°21'0 0.0
2016-May-28 13:30N 30°04' W 093°21'0 0.0
2016-May-28 12:33N 30°04' W 093°21'0 0.0
2016-May-28 11:33N 30°04' W 093°21'0 0.0
2016-May-28 09:19N 30°04' W 093°21'0 0.0
2016-May-28 08:16N 30°04' W 093°21'0 0.0
2016-May-28 07:33N 30°04' W 093°21'0 0.0
2016-May-28 06:33N 30°04' W 093°21'0 0.0
2016-May-28 05:33N 30°04' W 093°21'0 0.0
2016-May-28 04:33N 30°04' W 093°21'0 0.0
2016-May-28 03:33N 30°04' W 093°21'0 0.0
2016-May-28 02:33N 30°04' W 093°21'0 0.0
2016-May-28 01:33N 30°04' W 093°21'0 0.0
2016-May-28 00:33N 30°04' W 093°21'0 0.0
2016-May-27 23:33N 30°04' W 093°21'0 0.0
2016-May-27 22:33N 30°04' W 093°21'0 0.0
2016-May-27 21:33N 30°04' W 093°21'0 0.0
2016-May-27 20:33N 30°04' W 093°21'0 0.0
2016-May-27 19:33N 30°04' W 093°21'0 0.1
2016-May-27 18:33N 30°04' W 093°21'0 0.1
2016-May-27 17:33N 30°04' W 093°21'0 0.0
2016-May-27 16:33N 30°04' W 093°21'0 0.0
2016-May-27 15:33N 30°04' W 093°21'0 0.0
2016-May-27 14:33N 30°04' W 093°21'0 0.0
2016-May-27 13:33N 30°04' W 093°21'0 0.0
2016-May-27 12:33N 30°04' W 093°21'0 0.0
2016-May-27 11:33N 30°04' W 093°21'0 0.0
2016-May-27 10:33N 30°04' W 093°21'0 0.0
2016-May-27 09:33N 30°04' W 093°21'0 0.0
2016-May-27 08:33N 30°04' W 093°21'1 0.6
2016-May-27 07:33N 30°05' W 093°20'0 0.1
2016-May-27 06:33N 30°05' W 093°20'1 0.8
2016-May-27 05:33N 30°04' W 093°21'1 1.1
2016-May-27 04:33N 30°05' W 093°20'0 0.1
2016-May-27 03:33N 30°05' W 093°20'2 1.6
2016-May-27 02:33N 30°06' W 093°19'0 0.0
2016-May-27 01:33N 30°06' W 093°19'0 0.0
2016-May-27 00:33N 30°06' W 093°18'0 0.0
2016-May-26 23:33N 30°06' W 093°19'4 3.8
2016-May-26 22:33N 30°04' W 093°21'6 5.6
2016-May-26 21:33N 30°04' W 093°28'6 6.5
2016-May-26 20:33N 30°04' W 093°35'7 6.9
2016-May-26 19:33N 30°03' W 093°43'37 6.1
2016-May-26 13:30N 29°39' W 094°16'33 5.3
2016-May-26 07:18N 29°26' W 094°50'7 8.5
2016-May-26 06:31N 29°32' W 094°53'8 8.3
2016-May-26 05:33N 29°39' W 094°58'7 7.5
2016-May-26 04:33N 29°44' W 095°03'4 0.1
2016-May-24 05:27N 29°44' W 095°08'3 3.4
2016-May-24 04:33N 29°46' W 095°05'3 2.6
2016-May-24 03:33N 29°44' W 095°03'6 6.2
2016-May-24 02:33N 29°39' W 094°58'22 1.3
2016-May-23 09:19N 29°29' W 094°36'9 3.0
2016-May-23 06:26N 29°34' W 094°27'4 4.3
2016-May-23 05:33N 29°36' W 094°23'42 5.7
2016-May-22 22:16N 30°01' W 093°45'4 5.8
2016-May-22 21:33N 30°04' W 093°41'6 5.6
2016-May-22 20:33N 30°04' W 093°35'5 5.1
2016-May-22 19:33N 30°04' W 093°29'5 5.0
2016-May-22 18:33N 30°04' W 093°23'4 3.7
2016-May-22 17:33N 30°05' W 093°20'6 6.3
2016-May-22 16:33N 30°11' W 093°18'3 2.8
2016-May-22 15:33N 30°13' W 093°15'0 0.5
2016-May-22 14:33N 30°14' W 093°15'0 0.0
2016-May-22 13:33N 30°14' W 093°15'0 0.0
2016-May-22 12:33N 30°14' W 093°15'0 0.0
2016-May-22 11:33N 30°14' W 093°15'0 0.0
2016-May-22 10:33N 30°14' W 093°15'0 0.0
2016-May-22 09:33N 30°14' W 093°15'0 0.0
2016-May-22 08:33N 30°14' W 093°15'0 0.0
2016-May-22 07:33N 30°14' W 093°15'0 0.0
2016-May-22 06:33N 30°14' W 093°15'0 0.0
2016-May-22 05:33N 30°14' W 093°15'0 0.0
2016-May-22 04:33N 30°14' W 093°15'0 0.0
2016-May-22 03:33N 30°14' W 093°15'0 0.0
2016-May-22 02:33N 30°14' W 093°15'0 0.0
2016-May-22 01:33N 30°14' W 093°15'0 0.0
2016-May-22 00:33N 30°14' W 093°15'0 0.0
2016-May-21 23:33N 30°14' W 093°15'0 0.0
2016-May-21 22:33N 30°14' W 093°15'0 0.0
2016-May-21 21:33N 30°14' W 093°15'0 0.0
2016-May-21 20:33N 30°14' W 093°15'0 0.0
2016-May-21 19:33N 30°14' W 093°15'0 0.4
2016-May-21 18:33N 30°14' W 093°16'0 0.0
2016-May-21 17:33N 30°14' W 093°16'0 0.0
2016-May-21 16:33N 30°14' W 093°16'0 0.0
2016-May-21 15:33N 30°14' W 093°16'0 0.0
2016-May-21 14:33N 30°14' W 093°16'0 0.0
2016-May-21 13:33N 30°14' W 093°16'0 0.0
2016-May-21 12:33N 30°14' W 093°16'0 0.0
2016-May-21 11:33N 30°14' W 093°16'0 0.0
2016-May-21 10:33N 30°14' W 093°16'0 0.0
2016-May-21 09:33N 30°14' W 093°16'0 0.0
2016-May-21 08:33N 30°14' W 093°16'0 0.0
2016-May-21 07:33N 30°14' W 093°16'0 0.0
2016-May-21 06:33N 30°14' W 093°16'0 0.0
2016-May-21 05:33N 30°14' W 093°16'0 0.0
2016-May-21 04:33N 30°14' W 093°16'0 0.0
2016-May-21 03:33N 30°14' W 093°16'0 0.0
2016-May-21 02:33N 30°14' W 093°16'0 0.0
2016-May-21 01:33N 30°14' W 093°16'0 0.0
2016-May-21 00:33N 30°14' W 093°16'0 0.0
2016-May-20 23:33N 30°14' W 093°16'2 1.6
2016-May-20 22:33N 30°12' W 093°17'6 6.3
2016-May-20 21:33N 30°07' W 093°20'1 1.4
2016-May-20 20:33N 30°06' W 093°19'2 2.3
2016-May-20 19:33N 30°05' W 093°17'0 0.0
2016-May-20 18:33N 30°05' W 093°17'3 3.3
2016-May-20 17:33N 30°02' W 093°15'6 5.9
2016-May-20 16:33N 29°57' W 093°10'4 4.5
2016-May-20 15:33N 29°56' W 093°05'7 6.8
2016-May-20 14:30N 29°56' W 092°57'105 5.2
2016-May-19 18:20N 29°36' W 090°58'5 6.5
2016-May-19 17:33N 29°33' W 090°53'7 6.6
2016-May-19 16:33N 29°32' W 090°46'  

Dump ship's entire track history